createdAt,value
2023-07-18T00:00:18.809Z,101558.13
2023-07-18T00:02:46.994Z,101561.81
2023-07-18T00:05:14.111Z,101568.06
2023-07-18T00:07:42.057Z,101562.69
2023-07-18T00:10:10.032Z,101572.31
2023-07-18T00:12:37.712Z,101567.03
2023-07-18T00:15:08.133Z,101571.94
2023-07-18T00:17:35.469Z,101567.72
2023-07-18T00:20:03.221Z,101557.28
2023-07-18T00:22:29.734Z,101570.97
2023-07-18T00:24:56.356Z,101560.59
2023-07-18T00:27:22.942Z,101561.25
2023-07-18T00:29:50.204Z,101566.41
2023-07-18T00:32:16.982Z,101556.84
2023-07-18T00:34:45.405Z,101560.94
2023-07-18T00:37:12.790Z,101555.81
2023-07-18T00:39:39.365Z,101553.75
2023-07-18T00:42:06.214Z,101555.88
2023-07-18T00:44:33.244Z,101549.09
2023-07-18T00:46:59.812Z,101552.97
2023-07-18T00:49:26.816Z,101542.94
2023-07-18T00:51:53.743Z,101548.69
2023-07-18T00:54:21.824Z,101546.78
2023-07-18T00:56:48.705Z,101545.91
2023-07-18T00:59:17.467Z,101544.47
2023-07-18T01:01:44.702Z,101547.22
2023-07-18T01:04:11.337Z,101545.75
2023-07-18T01:06:38.184Z,101545.13
2023-07-18T01:09:06.428Z,101536.41
2023-07-18T01:14:26.093Z,101543.94
2023-07-18T01:16:55.902Z,101533.91
2023-07-18T01:19:23.155Z,101534.38
2023-07-18T01:21:49.816Z,101538.44
2023-07-18T01:24:16.335Z,101546.97
2023-07-18T01:26:42.860Z,101547.63
2023-07-18T01:29:09.778Z,101537.00
2023-07-18T01:31:36.392Z,101525.53
2023-07-18T01:34:02.915Z,101526.81
2023-07-18T01:36:30.816Z,101529.81
2023-07-18T01:38:57.603Z,101520.88
2023-07-18T01:41:24.131Z,101523.88
2023-07-18T01:43:50.604Z,101523.25
2023-07-18T01:46:17.111Z,101522.59
2023-07-18T01:48:43.591Z,101517.53
2023-07-18T01:51:10.172Z,101522.66
2023-07-18T01:53:36.735Z,101519.69
2023-07-18T01:56:03.259Z,101526.06
2023-07-18T01:58:29.776Z,101509.88
2023-07-18T02:00:56.286Z,101520.34
2023-07-18T02:03:22.789Z,101512.44
2023-07-18T02:05:49.331Z,101513.50
2023-07-18T02:08:15.807Z,101510.75
2023-07-18T02:10:42.294Z,101516.72
2023-07-18T02:13:09.457Z,101510.53
2023-07-18T02:15:36.029Z,101508.22
2023-07-18T02:18:02.552Z,101506.97
2023-07-18T02:20:29.146Z,101522.34
2023-07-18T02:22:57.420Z,101518.09
2023-07-18T02:25:24.183Z,101513.84
2023-07-18T02:27:50.742Z,101516.22
2023-07-18T02:30:18.177Z,101511.34
2023-07-18T02:32:45.612Z,101504.53
2023-07-18T02:35:19.794Z,101501.56
2023-07-18T02:37:47.164Z,101500.09
2023-07-18T02:40:15.377Z,101499.69
2023-07-18T02:42:41.878Z,101507.59
2023-07-18T02:45:10.770Z,101511.66
2023-07-18T02:47:38.569Z,101516.78
2023-07-18T02:50:05.980Z,101512.50
2023-07-18T02:52:32.819Z,101506.38
2023-07-18T02:54:59.410Z,101508.72
2023-07-18T02:57:25.987Z,101507.25
2023-07-18T02:59:52.470Z,101511.94
2023-07-18T03:02:18.998Z,101506.41
2023-07-18T03:04:48.876Z,101511.94
2023-07-18T03:07:18.827Z,101509.38
2023-07-18T03:09:46.539Z,101509.41
2023-07-18T03:12:13.484Z,101509.16
2023-07-18T03:14:40.274Z,101505.38
2023-07-18T03:17:07.141Z,101502.81
2023-07-18T03:19:33.759Z,101501.97
2023-07-18T03:22:00.282Z,101511.09
2023-07-18T03:24:26.780Z,101499.63
2023-07-18T03:26:53.834Z,101506.00
2023-07-18T03:29:20.996Z,101507.31
2023-07-18T03:31:47.634Z,101504.75
2023-07-18T03:34:14.208Z,101502.66
2023-07-18T03:36:40.967Z,101500.09
2023-07-18T03:39:07.507Z,101503.91
2023-07-18T03:41:33.998Z,101495.00
2023-07-18T03:44:01.291Z,101520.75
2023-07-18T03:46:27.822Z,101511.59
2023-07-18T03:48:54.596Z,101515.22
2023-07-18T03:51:21.859Z,101512.03
2023-07-18T03:53:51.987Z,101506.50
2023-07-18T03:56:18.902Z,101509.25
2023-07-18T03:58:45.427Z,101506.69
2023-07-18T04:01:12.024Z,101510.75
2023-07-18T04:03:39.286Z,101504.38
2023-07-18T04:06:07.670Z,101500.56
2023-07-18T04:08:34.501Z,101499.69
2023-07-18T04:11:01.335Z,101499.69
2023-07-18T04:13:28.051Z,101496.69
2023-07-18T04:15:55.888Z,101496.25
2023-07-18T04:18:23.006Z,101496.91
2023-07-18T04:20:50.481Z,101489.47
2023-07-18T04:23:18.072Z,101495.63
2023-07-18T04:25:57.278Z,101495.19
2023-07-18T04:28:24.629Z,101489.03
2023-07-18T04:30:51.148Z,101479.66
2023-07-18T04:33:17.704Z,101485.81
2023-07-18T04:35:46.094Z,101487.28
2023-07-18T04:38:14.926Z,101488.16
2023-07-18T04:40:42.379Z,101501.78
2023-07-18T04:43:09.803Z,101495.78
2023-07-18T04:45:46.374Z,101493.69
2023-07-18T04:48:14.852Z,101498.34
2023-07-18T04:50:45.999Z,101497.91
2023-07-18T04:53:12.950Z,101497.91
2023-07-18T04:55:40.129Z,101488.13
2023-07-18T04:58:08.607Z,101487.88
2023-07-18T05:00:35.968Z,101486.38
2023-07-18T05:03:02.561Z,101480.41
2023-07-18T05:05:30.274Z,101475.28
2023-07-18T05:07:59.603Z,101476.94
2023-07-18T05:10:26.687Z,101480.53
2023-07-18T05:12:54.449Z,101477.50
2023-07-18T05:15:21.272Z,101474.28
2023-07-18T05:17:48.544Z,101469.31
2023-07-18T05:20:16.082Z,101472.47
2023-07-18T05:22:45.078Z,101477.50
2023-07-18T05:25:14.136Z,101475.09
2023-07-18T05:27:41.886Z,101473.09
2023-07-18T05:30:17.633Z,101471.69
2023-07-18T05:32:46.020Z,101469.19
2023-07-18T05:35:15.379Z,101467.78
2023-07-18T05:37:43.372Z,101472.03
2023-07-18T05:40:11.230Z,101474.81
2023-07-18T05:42:42.761Z,101464.59
2023-07-18T05:45:10.370Z,101462.84
2023-07-18T05:47:38.345Z,101455.22
2023-07-18T05:50:07.713Z,101457.09
2023-07-18T05:52:34.895Z,101458.59
2023-07-18T05:55:01.464Z,101467.81
2023-07-18T05:57:28.045Z,101456.25
2023-07-18T05:59:54.519Z,101446.75
2023-07-18T06:02:22.450Z,101448.00
2023-07-18T06:04:49.083Z,101452.94
2023-07-18T06:07:16.804Z,101449.09
2023-07-18T06:09:43.684Z,101444.13
2023-07-18T06:12:10.565Z,101444.34
2023-07-18T06:14:37.091Z,101431.63
2023-07-18T06:17:04.532Z,101437.78
2023-07-18T06:19:31.168Z,101440.00
2023-07-18T06:21:58.316Z,101440.34
2023-07-18T06:24:25.615Z,101421.84
2023-07-18T06:26:52.608Z,101422.41
2023-07-18T06:29:20.800Z,101415.78
2023-07-18T06:31:50.596Z,101425.78
2023-07-18T06:34:20.469Z,101416.13
2023-07-18T06:36:47.520Z,101408.50
2023-07-18T06:39:15.210Z,101412.00
2023-07-18T06:41:42.320Z,101415.47
2023-07-18T06:44:10.213Z,101409.91
2023-07-18T06:46:37.386Z,101408.91
2023-07-18T06:49:04.362Z,101410.00
2023-07-18T06:51:30.969Z,101406.56
2023-07-18T06:53:57.592Z,101403.38
2023-07-18T06:56:24.544Z,101400.66
2023-07-18T06:58:51.148Z,101399.41
2023-07-18T07:01:17.893Z,101402.41
2023-07-18T07:03:44.787Z,101397.00
2023-07-18T07:06:12.796Z,101393.31
2023-07-18T07:08:39.399Z,101395.69
2023-07-18T07:11:07.391Z,101389.19
2023-07-18T07:13:35.730Z,101393.84
2023-07-18T07:16:04.420Z,101391.22
2023-07-18T07:18:31.806Z,101387.38
2023-07-18T07:20:58.521Z,101379.09
2023-07-18T07:23:25.112Z,101381.50
2023-07-18T07:25:51.925Z,101376.13
2023-07-18T07:28:18.416Z,101371.84
2023-07-18T07:30:44.998Z,101383.53
2023-07-18T07:33:12.030Z,101384.50
2023-07-18T07:35:38.794Z,101387.34
2023-07-18T07:38:06.961Z,101380.19
2023-07-18T07:40:33.652Z,101372.00
2023-07-18T07:43:00.155Z,101370.44
2023-07-18T07:45:26.779Z,101368.91
2023-07-18T07:47:53.647Z,101368.84
2023-07-18T07:50:20.198Z,101370.06
2023-07-18T07:52:46.830Z,101358.09
2023-07-18T07:55:14.953Z,101348.06
2023-07-18T07:57:42.481Z,101350.97
2023-07-18T08:00:09.584Z,101339.75
2023-07-18T08:02:36.151Z,101334.22
2023-07-18T08:05:02.908Z,101337.06
2023-07-18T08:07:30.108Z,101325.38
2023-07-18T08:09:56.850Z,101330.78
2023-07-18T08:12:23.487Z,101337.00
2023-07-18T08:14:50.276Z,101335.66
2023-07-18T08:17:18.074Z,101327.28
2023-07-18T08:19:44.938Z,101332.88
2023-07-18T08:22:11.494Z,101325.63
2023-07-18T08:24:38.102Z,101322.03
2023-07-18T08:27:04.959Z,101316.19
2023-07-18T08:29:31.579Z,101323.50
2023-07-18T08:31:59.521Z,101306.41
2023-07-18T08:34:26.510Z,101313.44
2023-07-18T08:36:53.099Z,101307.28
2023-07-18T08:39:19.945Z,101306.97
2023-07-18T08:41:50.147Z,101306.16
2023-07-18T08:44:17.780Z,101308.41
2023-07-18T08:46:48.837Z,101302.75
2023-07-18T08:49:18.339Z,101298.28
2023-07-18T08:51:46.222Z,101286.50
2023-07-18T08:54:14.325Z,101286.19
2023-07-18T08:56:43.926Z,101275.53
2023-07-18T08:59:11.494Z,101268.19
2023-07-18T09:01:49.143Z,101260.09
2023-07-18T09:04:16.768Z,101244.34
2023-07-18T09:06:51.026Z,101248.56
2023-07-18T09:09:19.145Z,101248.00
2023-07-18T09:12:06.291Z,101236.69
2023-07-18T09:14:34.902Z,101234.06
2023-07-18T09:17:05.161Z,101223.31
2023-07-18T09:19:36.188Z,101208.31
2023-07-18T09:22:02.794Z,101205.69
2023-07-18T09:24:32.619Z,101214.53
2023-07-18T09:26:59.197Z,101194.41
2023-07-18T09:29:28.653Z,101191.16
2023-07-18T09:31:55.491Z,101188.97
2023-07-18T09:34:22.341Z,101175.94
2023-07-18T09:37:04.366Z,101168.44
2023-07-18T09:39:30.882Z,101168.00
2023-07-18T09:41:57.985Z,101172.94
2023-07-18T09:44:32.938Z,101174.69
2023-07-18T09:47:00.808Z,101164.22
2023-07-18T09:49:33.081Z,101170.31
2023-07-18T09:52:04.680Z,101179.50
2023-07-18T09:54:32.258Z,101181.44
2023-07-18T09:57:12.174Z,101180.19
2023-07-18T09:59:40.890Z,101177.16
2023-07-18T10:02:10.474Z,101174.97
2023-07-18T10:04:38.089Z,101186.28
2023-07-18T10:07:05.344Z,101192.31
2023-07-18T10:09:33.671Z,101206.66
2023-07-18T10:12:00.174Z,101222.22
2023-07-18T10:14:57.709Z,101220.03
2023-07-18T10:17:39.966Z,101208.72
2023-07-18T10:20:22.814Z,101205.56
2023-07-18T10:22:55.758Z,101195.19
2023-07-18T10:25:23.150Z,101196.22
2023-07-18T10:27:50.536Z,101183.47
2023-07-18T10:30:19.730Z,101161.91
2023-07-18T10:32:54.191Z,101148.63
2023-07-18T10:35:23.130Z,101156.13
2023-07-18T10:37:55.222Z,101137.59
2023-07-18T10:40:49.950Z,101137.97
2023-07-18T10:43:21.453Z,101113.69
2023-07-18T10:45:48.254Z,101120.94
2023-07-18T10:48:19.936Z,101111.59
2023-07-18T10:50:48.458Z,101136.25
2023-07-18T10:53:19.662Z,101151.03
2023-07-18T10:55:47.380Z,101137.06
2023-07-18T10:58:18.887Z,101129.59
2023-07-18T11:00:46.604Z,101098.13
2023-07-18T11:03:24.161Z,101089.22
2023-07-18T11:05:51.944Z,101099.31
2023-07-18T11:08:28.859Z,101099.09
2023-07-18T11:11:00.387Z,101092.53
2023-07-18T11:13:31.802Z,101094.94
2023-07-18T11:16:02.872Z,101091.72
2023-07-18T11:18:35.021Z,101090.81
2023-07-18T11:21:06.010Z,101079.75
2023-07-18T11:23:34.178Z,101080.28
2023-07-18T11:26:00.980Z,101078.91
2023-07-18T11:28:34.679Z,101069.78
2023-07-18T11:31:02.417Z,101073.03
2023-07-18T11:33:30.410Z,101065.69
2023-07-18T11:35:57.714Z,101065.75
2023-07-18T11:38:29.388Z,101068.13
2023-07-18T11:40:56.147Z,101064.16
2023-07-18T11:43:22.765Z,101047.66
2023-07-18T11:45:56.124Z,101043.13
2023-07-18T11:48:22.842Z,101029.50
2023-07-18T11:50:49.465Z,101018.81
2023-07-18T11:53:26.481Z,101010.06
2023-07-18T11:55:55.848Z,101012.78
2023-07-18T11:58:23.211Z,101001.44
2023-07-18T12:00:49.724Z,101004.97
2023-07-18T12:03:16.317Z,101004.47
2023-07-18T12:05:42.974Z,101006.28
2023-07-18T12:08:09.774Z,100987.91
2023-07-18T12:10:36.413Z,100989.41
2023-07-18T12:13:02.945Z,100983.81
2023-07-18T12:15:29.600Z,100977.31
2023-07-18T12:17:57.623Z,100972.81
2023-07-18T12:20:24.206Z,100962.28
2023-07-18T12:22:50.775Z,100958.72
2023-07-18T12:25:18.203Z,100946.72
2023-07-18T12:27:44.766Z,100952.81
2023-07-18T12:30:13.305Z,100943.78
2023-07-18T12:32:40.044Z,100950.81
2023-07-18T12:35:07.033Z,100945.06
2023-07-18T12:37:33.539Z,100940.47
2023-07-18T12:40:00.265Z,100940.13
2023-07-18T12:42:26.821Z,100938.81
2023-07-18T12:44:53.353Z,100941.88
2023-07-18T12:47:19.869Z,100951.72
2023-07-18T12:52:16.135Z,100949.34
2023-07-18T12:54:42.678Z,100935.63
2023-07-18T12:57:09.365Z,100925.22
2023-07-18T12:59:35.962Z,100912.19
2023-07-18T13:02:02.709Z,100909.53
2023-07-18T13:04:30.194Z,100912.91
2023-07-18T13:06:57.159Z,100908.06
2023-07-18T13:09:23.737Z,100893.66
2023-07-18T13:11:50.827Z,100883.91
2023-07-18T13:14:20.416Z,100893.19
2023-07-18T13:16:47.184Z,100895.38
2023-07-18T13:19:13.756Z,100883.44
2023-07-18T13:21:40.456Z,100881.38
2023-07-18T13:24:07.273Z,100881.50
2023-07-18T13:26:34.026Z,100881.88
2023-07-18T13:29:01.180Z,100881.13
2023-07-18T13:31:27.876Z,100878.66
2023-07-18T13:33:55.151Z,100865.81
2023-07-18T13:36:22.274Z,100869.66
2023-07-18T13:38:49.068Z,100859.97
2023-07-18T13:41:15.940Z,100870.19
2023-07-18T13:43:45.344Z,100866.88
2023-07-18T13:46:16.934Z,100871.09
2023-07-18T13:48:43.832Z,100866.38
2023-07-18T13:51:10.571Z,100862.34
2023-07-18T13:53:37.073Z,100849.59
2023-07-18T13:56:03.764Z,100848.72
2023-07-18T13:58:30.316Z,100839.81
2023-07-18T14:00:57.987Z,100837.88
2023-07-18T14:03:35.371Z,100838.50
2023-07-18T14:06:04.136Z,100816.03
2023-07-18T14:08:31.293Z,100817.22
2023-07-18T14:10:57.921Z,100814.19
2023-07-18T14:13:24.579Z,100798.97
2023-07-18T14:15:51.860Z,100793.78
2023-07-18T14:18:18.679Z,100799.91
2023-07-18T14:20:45.904Z,100793.28
2023-07-18T14:23:12.633Z,100789.13
2023-07-18T14:25:39.237Z,100768.16
2023-07-18T14:28:05.710Z,100778.56
2023-07-18T14:30:32.263Z,100773.31
2023-07-18T14:32:58.805Z,100779.56
2023-07-18T14:35:25.436Z,100774.91
2023-07-18T14:37:52.125Z,100770.19
2023-07-18T14:40:18.713Z,100766.13
2023-07-18T14:42:45.754Z,100783.47
2023-07-18T14:45:12.473Z,100762.38
2023-07-18T14:47:39.087Z,100764.16
2023-07-18T14:50:06.245Z,100756.34
2023-07-18T14:52:32.881Z,100760.03
2023-07-18T14:55:00.486Z,100761.38
2023-07-18T14:57:27.394Z,100761.28
2023-07-18T14:59:54.872Z,100748.53
2023-07-18T15:02:22.101Z,100743.06
2023-07-18T15:04:49.034Z,100749.06
2023-07-18T15:07:15.870Z,100746.88
2023-07-18T15:09:42.403Z,100732.97
2023-07-18T15:12:09.317Z,100744.81
2023-07-18T15:14:36.227Z,100746.94
2023-07-18T15:17:02.833Z,100736.81
2023-07-18T15:19:29.343Z,100733.47
2023-07-18T15:21:56.360Z,100727.66
2023-07-18T15:24:22.861Z,100727.22
2023-07-18T15:26:49.446Z,100729.00
2023-07-18T15:29:15.993Z,100722.66
2023-07-18T15:31:42.706Z,100717.34
2023-07-18T15:34:10.096Z,100713.69
2023-07-18T15:36:36.664Z,100711.97
2023-07-18T15:39:03.408Z,100712.50
2023-07-18T15:41:29.977Z,100711.91
2023-07-18T15:43:57.588Z,100707.28
2023-07-18T15:46:24.850Z,100702.59
2023-07-18T15:48:51.639Z,100700.06
2023-07-18T15:51:18.261Z,100690.50
2023-07-18T15:53:44.831Z,100690.66
2023-07-18T15:56:15.430Z,100694.38
2023-07-18T15:58:42.576Z,100691.69
2023-07-18T16:01:09.295Z,100685.16
2023-07-18T16:03:36.181Z,100687.38
2023-07-18T16:06:03.475Z,100676.59
2023-07-18T16:08:30.346Z,100676.03
2023-07-18T16:10:57.017Z,100669.72
2023-07-18T16:13:23.648Z,100658.34
2023-07-18T16:15:50.249Z,100665.53
2023-07-18T16:18:16.778Z,100650.59
2023-07-18T16:20:43.534Z,100661.31
2023-07-18T16:23:10.432Z,100658.59
2023-07-18T16:25:37.400Z,100650.53
2023-07-18T16:28:04.880Z,100657.78
2023-07-18T16:30:31.639Z,100654.94
2023-07-18T16:32:58.208Z,100655.06
2023-07-18T16:35:24.933Z,100652.63
2023-07-18T16:37:51.449Z,100638.59
2023-07-18T16:40:17.979Z,100649.63
2023-07-18T16:42:44.444Z,100651.66
2023-07-18T16:45:11.120Z,100641.16
2023-07-18T16:47:37.691Z,100631.66
2023-07-18T16:50:05.975Z,100630.53
2023-07-18T16:52:32.506Z,100632.06
2023-07-18T16:54:59.040Z,100632.22
2023-07-18T16:57:25.550Z,100624.72
2023-07-18T16:59:52.200Z,100616.31
2023-07-18T17:02:18.675Z,100620.28
2023-07-18T17:04:45.225Z,100618.28
2023-07-18T17:07:11.784Z,100614.56
2023-07-18T17:09:38.320Z,100624.09
2023-07-18T17:12:05.262Z,100622.00
2023-07-18T17:14:32.058Z,100618.56
2023-07-18T17:16:58.569Z,100619.31
2023-07-18T17:19:25.106Z,100620.16
2023-07-18T17:21:51.581Z,100608.47
2023-07-18T17:24:18.133Z,100621.09
2023-07-18T17:26:44.736Z,100622.31
2023-07-18T17:29:11.295Z,100609.00
2023-07-18T17:31:37.794Z,100610.19
2023-07-18T17:34:05.523Z,100612.06
2023-07-18T17:36:32.133Z,100606.63
2023-07-18T17:38:58.608Z,100620.13
2023-07-18T17:41:25.191Z,100607.81
2023-07-18T17:43:51.721Z,100610.69
2023-07-18T17:46:18.332Z,100610.06
2023-07-18T17:48:45.491Z,100601.50
2023-07-18T17:51:12.363Z,100598.06
2023-07-18T17:53:39.661Z,100604.28
2023-07-18T17:56:06.449Z,100607.34
2023-07-18T17:58:32.944Z,100608.25
2023-07-18T18:00:59.471Z,100611.78
2023-07-18T18:03:26.054Z,100614.69
2023-07-18T18:05:53.107Z,100605.09
2023-07-18T18:08:19.698Z,100610.72
2023-07-18T18:10:47.230Z,100609.59
2023-07-18T18:13:14.957Z,100610.81
2023-07-18T18:15:56.347Z,100613.84
2023-07-18T18:18:29.817Z,100609.06
2023-07-18T18:21:01.039Z,100606.25
2023-07-18T18:23:38.523Z,100605.72
2023-07-18T18:26:07.545Z,100607.59
2023-07-18T18:28:34.171Z,100604.00
2023-07-18T18:31:01.058Z,100595.22
2023-07-18T18:33:27.766Z,100600.09
2023-07-18T18:35:55.575Z,100599.28
2023-07-18T18:38:22.331Z,100599.31
2023-07-18T18:40:49.170Z,100602.03
2023-07-18T18:43:15.759Z,100610.09
2023-07-18T18:45:42.389Z,100595.47
2023-07-18T18:48:11.011Z,100603.50
2023-07-18T18:50:37.993Z,100611.34
2023-07-18T18:53:04.464Z,100613.19
2023-07-18T18:55:33.574Z,100611.03
2023-07-18T18:58:00.814Z,100613.06
2023-07-18T19:00:27.461Z,100606.41
2023-07-18T19:02:54.331Z,100603.06
2023-07-18T19:05:21.332Z,100615.72
2023-07-18T19:07:47.978Z,100617.88
2023-07-18T19:10:14.682Z,100616.69
2023-07-18T19:12:41.464Z,100619.03
2023-07-18T19:15:08.379Z,100616.81
2023-07-18T19:17:35.132Z,100613.91
2023-07-18T19:20:01.959Z,100618.31
2023-07-18T19:22:28.686Z,100621.09
2023-07-18T19:24:55.290Z,100627.16
2023-07-18T19:27:21.885Z,100628.19
2023-07-18T19:29:48.671Z,100631.03
2023-07-18T19:32:15.239Z,100639.16
2023-07-18T19:34:44.880Z,100644.31
2023-07-18T19:37:11.421Z,100646.97
2023-07-18T19:39:38.354Z,100653.47
2023-07-18T19:42:05.647Z,100667.34
2023-07-18T19:44:32.644Z,100660.88
2023-07-18T19:46:59.302Z,100662.34
2023-07-18T19:49:26.280Z,100672.75
2023-07-18T19:51:54.022Z,100666.50
2023-07-18T19:54:20.691Z,100662.81
2023-07-18T19:56:47.714Z,100665.00
2023-07-18T19:59:14.606Z,100666.28
2023-07-18T20:01:41.407Z,100672.72
2023-07-18T20:04:08.082Z,100669.00
2023-07-18T20:06:34.690Z,100676.47
2023-07-18T20:09:01.901Z,100682.25
2023-07-18T20:11:28.767Z,100695.31
2023-07-18T20:13:55.481Z,100700.22
2023-07-18T20:16:22.447Z,100692.19
2023-07-18T20:18:52.580Z,100693.47
2023-07-18T20:21:22.543Z,100681.53
2023-07-18T20:23:49.375Z,100683.03
2023-07-18T20:26:16.162Z,100691.56
2023-07-18T20:28:42.639Z,100689.19
2023-07-18T20:31:09.177Z,100689.31
2023-07-18T20:33:35.742Z,100693.06
2023-07-18T20:36:02.528Z,100692.09
2023-07-18T20:38:29.010Z,100691.31
2023-07-18T20:40:55.611Z,100694.19
2023-07-18T20:43:24.884Z,100688.38
2023-07-18T20:45:59.773Z,100687.88
2023-07-18T20:48:30.808Z,100686.84
2023-07-18T20:50:58.688Z,100690.50
2023-07-18T20:53:25.925Z,100691.41
2023-07-18T20:55:52.473Z,100698.19
2023-07-18T20:58:18.965Z,100702.97
2023-07-18T21:00:45.539Z,100696.03
2023-07-18T21:03:12.453Z,100691.59
2023-07-18T21:05:39.435Z,100703.38
2023-07-18T21:08:06.879Z,100706.81
2023-07-18T21:10:34.471Z,100702.69
2023-07-18T21:13:01.176Z,100706.69
2023-07-18T21:15:27.760Z,100704.75
2023-07-18T21:17:54.396Z,100707.59
2023-07-18T21:20:21.017Z,100710.44
2023-07-18T21:22:47.597Z,100712.66
2023-07-18T21:25:14.777Z,100710.44
2023-07-18T21:27:41.314Z,100710.50
2023-07-18T21:30:08.792Z,100709.94
2023-07-18T21:32:36.102Z,100717.50
2023-07-18T21:35:03.737Z,100709.97
2023-07-18T21:37:30.419Z,100711.13
2023-07-18T21:39:56.996Z,100714.81
2023-07-18T21:42:23.624Z,100712.59
2023-07-18T21:44:50.252Z,100712.34
2023-07-18T21:47:16.791Z,100712.38
2023-07-18T21:49:43.324Z,100711.84
2023-07-18T21:52:09.792Z,100712.41
2023-07-18T21:54:36.262Z,100710.75
2023-07-18T21:57:02.929Z,100710.44
2023-07-18T21:59:29.571Z,100707.66
2023-07-18T22:01:56.099Z,100707.94
2023-07-18T22:04:23.259Z,100704.59
2023-07-18T22:06:49.830Z,100707.38
2023-07-18T22:09:16.411Z,100702.34
2023-07-18T22:11:42.870Z,100697.59
2023-07-18T22:14:09.411Z,100710.19
2023-07-18T22:16:35.931Z,100712.69
2023-07-18T22:19:02.705Z,100710.75
2023-07-18T22:21:29.191Z,100708.78
2023-07-18T22:23:56.083Z,100710.75
2023-07-18T22:26:22.638Z,100716.31
2023-07-18T22:28:49.152Z,100712.41
2023-07-18T22:31:15.849Z,100719.09
2023-07-18T22:33:42.574Z,100724.97
2023-07-18T22:36:09.306Z,100726.63
2023-07-18T22:38:35.807Z,100725.25
2023-07-18T22:41:03.726Z,100716.53
2023-07-18T22:43:30.561Z,100717.06
2023-07-18T22:45:57.102Z,100725.16
2023-07-18T22:48:23.639Z,100718.44
2023-07-18T22:50:53.323Z,100726.81
2023-07-18T22:53:20.544Z,100721.78
2023-07-18T22:55:48.542Z,100724.53
2023-07-18T22:58:15.859Z,100724.81
2023-07-18T23:00:43.259Z,100724.50
2023-07-18T23:03:10.027Z,100723.97
2023-07-18T23:05:36.838Z,100722.28
2023-07-18T23:08:04.957Z,100725.31
2023-07-18T23:10:31.604Z,100718.91
2023-07-18T23:12:59.183Z,100713.88
2023-07-18T23:15:25.816Z,100716.38
2023-07-18T23:17:52.306Z,100722.75
2023-07-18T23:20:18.841Z,100720.50
2023-07-18T23:22:45.436Z,100721.66
2023-07-18T23:25:11.964Z,100718.28
2023-07-18T23:27:38.476Z,100717.97
2023-07-18T23:30:06.209Z,100716.00
2023-07-18T23:32:32.737Z,100718.50
2023-07-18T23:34:59.289Z,100715.97
2023-07-18T23:37:25.822Z,100722.09
2023-07-18T23:39:55.556Z,100711.72
2023-07-18T23:42:22.063Z,100721.41
2023-07-18T23:44:48.586Z,100718.31
2023-07-18T23:47:15.076Z,100720.56
2023-07-18T23:49:41.637Z,100719.13
2023-07-18T23:52:08.243Z,100727.47
2023-07-18T23:54:34.724Z,100723.53
2023-07-18T23:57:01.234Z,100737.75
2023-07-18T23:59:27.802Z,100732.72
